createdAt,value
2022-10-24T00:00:42.817Z,99416.69
2022-10-24T00:03:10.564Z,99424.50
2022-10-24T00:05:41.011Z,99416.25
2022-10-24T00:08:08.215Z,99410.00
2022-10-24T00:10:36.626Z,99415.66
2022-10-24T00:13:04.087Z,99410.78
2022-10-24T00:15:31.254Z,99415.13
2022-10-24T00:17:58.681Z,99408.53
2022-10-24T00:20:25.842Z,99406.09
2022-10-24T00:22:53.131Z,99407.31
2022-10-24T00:25:20.582Z,99417.62
2022-10-24T00:27:47.719Z,99410.06
2022-10-24T00:30:14.837Z,99413.56
2022-10-24T00:32:42.617Z,99413.94
2022-10-24T00:35:10.226Z,99398.41
2022-10-24T00:37:37.377Z,99399.19
2022-10-24T00:40:06.414Z,99407.53
2022-10-24T00:42:33.545Z,99405.06
2022-10-24T00:45:01.414Z,99395.69
2022-10-24T00:47:28.908Z,99401.53
2022-10-24T00:50:02.595Z,99400.00
2022-10-24T00:52:34.342Z,99403.69
2022-10-24T00:55:01.573Z,99397.81
2022-10-24T00:57:34.346Z,99403.25
2022-10-24T01:00:04.761Z,99393.63
2022-10-24T01:02:32.067Z,99386.31
2022-10-24T01:04:59.374Z,99395.16
2022-10-24T01:07:29.824Z,99399.22
2022-10-24T01:10:15.543Z,99395.22
2022-10-24T01:12:46.710Z,99388.38
2022-10-24T01:15:23.392Z,99379.12
2022-10-24T01:17:50.761Z,99384.91
2022-10-24T01:20:22.829Z,99386.47
2022-10-24T01:22:57.811Z,99380.00
2022-10-24T01:25:32.906Z,99389.28
2022-10-24T01:28:11.861Z,99393.25
2022-10-24T01:30:43.494Z,99397.16
2022-10-24T01:33:15.982Z,99400.53
2022-10-24T01:35:44.725Z,99410.16
2022-10-24T01:38:14.998Z,99405.53
2022-10-24T01:40:51.407Z,99383.72
2022-10-24T01:43:19.995Z,99391.22
2022-10-24T01:45:47.410Z,99393.03
2022-10-24T01:48:15.578Z,99389.78
2022-10-24T01:50:43.522Z,99387.19
2022-10-24T01:53:10.603Z,99389.09
2022-10-24T01:55:37.757Z,99383.47
2022-10-24T01:58:06.223Z,99379.94
2022-10-24T02:00:33.473Z,99378.84
2022-10-24T02:03:02.118Z,99374.13
2022-10-24T02:05:33.859Z,99367.53
2022-10-24T02:08:02.211Z,99369.69
2022-10-24T02:10:30.789Z,99366.03
2022-10-24T02:13:00.239Z,99357.28
2022-10-24T02:15:28.338Z,99352.53
2022-10-24T02:17:55.785Z,99353.28
2022-10-24T02:20:25.447Z,99347.94
2022-10-24T02:22:56.999Z,99337.78
2022-10-24T02:25:25.238Z,99341.81
2022-10-24T02:27:53.702Z,99348.75
2022-10-24T02:30:21.991Z,99351.88
2022-10-24T02:32:50.813Z,99358.88
2022-10-24T02:35:18.787Z,99355.34
2022-10-24T02:37:50.334Z,99359.78
2022-10-24T02:40:18.760Z,99355.94
2022-10-24T02:42:46.599Z,99345.19
2022-10-24T02:45:13.786Z,99355.28
2022-10-24T02:47:41.320Z,99355.75
2022-10-24T02:50:09.027Z,99359.81
2022-10-24T02:52:37.035Z,99370.16
2022-10-24T02:55:04.848Z,99378.78
2022-10-24T02:57:32.014Z,99370.50
2022-10-24T02:59:59.148Z,99356.13
2022-10-24T03:02:26.672Z,99358.38
2022-10-24T03:04:53.826Z,99347.75
2022-10-24T03:07:21.035Z,99343.25
2022-10-24T03:09:48.528Z,99341.53
2022-10-24T03:12:16.328Z,99322.44
2022-10-24T03:14:43.839Z,99326.97
2022-10-24T03:17:11.259Z,99321.88
2022-10-24T03:19:38.640Z,99321.56
2022-10-24T03:22:05.813Z,99314.94
2022-10-24T03:24:43.854Z,99320.59
2022-10-24T03:27:11.785Z,99334.03
2022-10-24T03:29:39.209Z,99322.50
2022-10-24T03:32:06.605Z,99327.25
2022-10-24T03:34:33.797Z,99340.75
2022-10-24T03:37:01.251Z,99344.41
2022-10-24T03:39:28.383Z,99335.38
2022-10-24T03:41:55.513Z,99339.56
2022-10-24T03:44:22.969Z,99326.62
2022-10-24T03:46:50.121Z,99332.59
2022-10-24T03:49:17.277Z,99330.66
2022-10-24T03:51:44.729Z,99337.44
2022-10-24T03:54:15.238Z,99349.50
2022-10-24T03:56:42.930Z,99345.53
2022-10-24T03:59:10.610Z,99351.88
2022-10-24T04:01:37.855Z,99342.66
2022-10-24T04:04:05.417Z,99342.91
2022-10-24T04:06:35.553Z,99346.37
2022-10-24T04:09:04.096Z,99347.75
2022-10-24T04:11:31.562Z,99348.38
2022-10-24T04:13:59.015Z,99359.69
2022-10-24T04:16:26.425Z,99348.53
2022-10-24T04:18:53.876Z,99343.94
2022-10-24T04:21:21.876Z,99341.44
2022-10-24T04:23:49.311Z,99330.28
2022-10-24T04:26:16.956Z,99343.28
2022-10-24T04:28:44.368Z,99332.97
2022-10-24T04:31:11.525Z,99344.41
2022-10-24T04:33:39.059Z,99340.28
2022-10-24T04:36:06.282Z,99345.25
2022-10-24T04:38:33.788Z,99333.03
2022-10-24T04:41:01.397Z,99337.91
2022-10-24T04:43:28.533Z,99328.44
2022-10-24T04:45:55.732Z,99331.19
2022-10-24T04:48:23.187Z,99330.66
2022-10-24T04:50:50.323Z,99320.38
2022-10-24T04:53:17.461Z,99324.13
2022-10-24T04:55:44.923Z,99315.78
2022-10-24T04:58:12.029Z,99307.34
2022-10-24T05:00:39.401Z,99321.66
2022-10-24T05:03:06.860Z,99314.63
2022-10-24T05:05:34.227Z,99316.00
2022-10-24T05:08:01.560Z,99320.50
2022-10-24T05:10:29.209Z,99334.94
2022-10-24T05:12:56.368Z,99338.53
2022-10-24T05:15:23.497Z,99336.25
2022-10-24T05:17:51.120Z,99344.09
2022-10-24T05:20:18.353Z,99349.03
2022-10-24T05:22:45.878Z,99347.72
2022-10-24T05:25:13.618Z,99360.78
2022-10-24T05:27:40.875Z,99366.41
2022-10-24T05:30:08.351Z,99366.47
2022-10-24T05:32:38.764Z,99373.66
2022-10-24T05:35:07.271Z,99368.84
2022-10-24T05:37:34.482Z,99361.53
2022-10-24T05:40:02.220Z,99359.66
2022-10-24T05:42:29.411Z,99371.03
2022-10-24T05:44:56.595Z,99377.72
2022-10-24T05:47:25.796Z,99382.41
2022-10-24T05:49:55.947Z,99383.78
2022-10-24T05:52:23.744Z,99378.56
2022-10-24T05:55:02.439Z,99388.66
2022-10-24T05:57:34.366Z,99388.88
2022-10-24T06:00:01.715Z,99394.25
2022-10-24T06:02:39.512Z,99390.50
2022-10-24T06:05:07.830Z,99395.00
2022-10-24T06:07:35.524Z,99385.50
2022-10-24T06:10:03.376Z,99390.38
2022-10-24T06:12:31.054Z,99386.44
2022-10-24T06:14:59.007Z,99376.41
2022-10-24T06:17:26.399Z,99370.94
2022-10-24T06:19:54.619Z,99384.75
2022-10-24T06:22:24.975Z,99369.13
2022-10-24T06:24:52.213Z,99369.34
2022-10-24T06:27:19.806Z,99366.28
2022-10-24T06:29:47.073Z,99362.47
2022-10-24T06:32:34.989Z,99361.44
2022-10-24T06:35:02.531Z,99360.06
2022-10-24T06:37:32.000Z,99360.06
2022-10-24T06:39:59.688Z,99359.25
2022-10-24T06:42:27.221Z,99376.75
2022-10-24T06:47:29.449Z,99348.84
2022-10-24T06:50:14.140Z,99357.06
2022-10-24T06:53:01.908Z,99367.06
2022-10-24T06:55:29.244Z,99369.41
2022-10-24T06:58:13.626Z,99365.69
2022-10-24T07:00:41.059Z,99376.06
2022-10-24T07:03:08.499Z,99383.00
2022-10-24T07:05:37.166Z,99379.00
2022-10-24T07:08:09.411Z,99386.34
2022-10-24T07:10:38.086Z,99393.97
2022-10-24T07:13:05.518Z,99404.56
2022-10-24T07:15:32.821Z,99402.78
2022-10-24T07:18:00.677Z,99405.28
2022-10-24T07:20:27.909Z,99406.72
2022-10-24T07:22:55.356Z,99409.53
2022-10-24T07:25:23.027Z,99402.25
2022-10-24T07:27:52.773Z,99407.88
2022-10-24T07:30:20.215Z,99416.09
2022-10-24T07:32:48.755Z,99409.88
2022-10-24T07:35:16.366Z,99400.31
2022-10-24T07:37:44.141Z,99406.84
2022-10-24T07:40:12.456Z,99406.28
2022-10-24T07:42:39.896Z,99418.31
2022-10-24T07:45:07.577Z,99416.75
2022-10-24T07:47:35.233Z,99425.88
2022-10-24T07:50:02.486Z,99420.06
2022-10-24T07:52:29.716Z,99431.09
2022-10-24T07:54:58.219Z,99425.34
2022-10-24T07:57:25.518Z,99424.44
2022-10-24T07:59:52.792Z,99416.66
2022-10-24T08:02:20.439Z,99433.16
2022-10-24T08:04:48.019Z,99436.72
2022-10-24T08:07:15.206Z,99435.16
2022-10-24T08:09:44.763Z,99428.94
2022-10-24T08:12:14.681Z,99427.25
2022-10-24T08:14:41.993Z,99424.00
2022-10-24T08:17:09.614Z,99419.53
2022-10-24T08:19:37.160Z,99411.09
2022-10-24T08:22:04.368Z,99413.13
2022-10-24T08:24:31.604Z,99397.63
2022-10-24T08:26:59.652Z,99407.06
2022-10-24T08:29:26.924Z,99411.56
2022-10-24T08:31:55.445Z,99414.66
2022-10-24T08:34:23.388Z,99400.00
2022-10-24T08:36:50.727Z,99395.34
2022-10-24T08:39:18.040Z,99398.53
2022-10-24T08:41:47.362Z,99396.94
2022-10-24T08:44:30.917Z,99398.41
2022-10-24T08:47:20.432Z,99394.50
2022-10-24T08:49:50.755Z,99387.28
2022-10-24T08:52:18.618Z,99390.97
2022-10-24T08:54:45.927Z,99382.88
2022-10-24T08:57:26.843Z,99388.06
2022-10-24T08:59:55.181Z,99382.41
2022-10-24T09:02:28.279Z,99380.38
2022-10-24T09:04:57.049Z,99384.69
2022-10-24T09:10:01.106Z,99374.22
2022-10-24T09:12:28.526Z,99384.78
2022-10-24T09:14:57.873Z,99384.25
2022-10-24T09:17:28.534Z,99387.12
2022-10-24T09:19:56.978Z,99383.25
2022-10-24T09:22:25.154Z,99383.22
2022-10-24T09:25:03.375Z,99383.56
2022-10-24T09:27:32.726Z,99399.72
2022-10-24T09:30:04.432Z,99391.84
2022-10-24T09:32:32.694Z,99392.38
2022-10-24T09:35:08.187Z,99396.94
2022-10-24T09:37:44.426Z,99394.88
2022-10-24T09:40:14.637Z,99416.19
2022-10-24T09:42:44.576Z,99416.50
2022-10-24T09:45:19.027Z,99420.63
2022-10-24T09:47:46.946Z,99424.63
2022-10-24T09:50:21.868Z,99424.81
2022-10-24T09:52:50.327Z,99422.59
2022-10-24T09:55:19.035Z,99407.50
2022-10-24T09:57:46.517Z,99409.88
2022-10-24T10:00:24.377Z,99414.00
2022-10-24T10:03:02.022Z,99403.31
2022-10-24T10:05:44.366Z,99415.44
2022-10-24T10:08:12.956Z,99411.56
2022-10-24T10:10:40.183Z,99402.50
2022-10-24T10:13:18.668Z,99408.88
2022-10-24T10:15:47.447Z,99394.31
2022-10-24T10:18:22.387Z,99399.31
2022-10-24T10:21:00.473Z,99400.00
2022-10-24T10:23:29.560Z,99394.81
2022-10-24T10:26:08.593Z,99385.00
2022-10-24T10:28:36.908Z,99376.69
2022-10-24T10:31:04.465Z,99386.00
2022-10-24T10:34:00.899Z,99384.75
2022-10-24T10:36:31.970Z,99383.25
2022-10-24T10:39:18.083Z,99390.00
2022-10-24T10:41:49.357Z,99383.56
2022-10-24T10:44:35.444Z,99366.31
2022-10-24T10:47:26.773Z,99370.53
2022-10-24T10:49:55.175Z,99374.19
2022-10-24T10:52:30.201Z,99366.47
2022-10-24T10:55:09.449Z,99361.81
2022-10-24T10:57:38.292Z,99361.44
2022-10-24T11:00:13.526Z,99359.94
2022-10-24T11:02:41.116Z,99364.28
2022-10-24T11:05:14.559Z,99356.91
2022-10-24T11:07:56.436Z,99365.66
2022-10-24T11:10:25.380Z,99360.25
2022-10-24T11:12:52.908Z,99362.09
2022-10-24T11:15:21.147Z,99351.88
2022-10-24T11:17:56.005Z,99354.94
2022-10-24T11:20:31.873Z,99356.66
2022-10-24T11:23:00.110Z,99355.31
2022-10-24T11:25:50.609Z,99372.00
2022-10-24T11:28:36.712Z,99374.22
2022-10-24T11:31:08.571Z,99360.13
2022-10-24T11:33:36.950Z,99348.41
2022-10-24T11:36:36.891Z,99358.44
2022-10-24T11:39:07.315Z,99361.22
2022-10-24T11:41:34.804Z,99351.59
2022-10-24T11:44:04.125Z,99352.00
2022-10-24T11:46:35.484Z,99350.47
2022-10-24T11:49:12.198Z,99356.28
2022-10-24T11:51:40.937Z,99352.50
2022-10-24T11:54:17.599Z,99350.88
2022-10-24T11:56:47.060Z,99343.75
2022-10-24T11:59:24.320Z,99351.50
2022-10-24T12:01:51.602Z,99354.66
2022-10-24T12:04:37.772Z,99346.06
2022-10-24T12:07:04.946Z,99341.78
2022-10-24T12:09:55.697Z,99340.72
2022-10-24T12:12:35.963Z,99339.50
2022-10-24T12:15:06.566Z,99344.81
2022-10-24T12:17:47.528Z,99337.34
2022-10-24T12:20:18.188Z,99329.06
2022-10-24T12:22:45.680Z,99320.44
2022-10-24T12:25:21.298Z,99311.94
2022-10-24T12:27:53.083Z,99309.50
2022-10-24T12:30:21.803Z,99314.63
2022-10-24T12:32:51.143Z,99325.53
2022-10-24T12:35:31.637Z,99336.78
2022-10-24T12:37:59.562Z,99329.47
2022-10-24T12:40:45.262Z,99319.03
2022-10-24T12:43:17.545Z,99316.78
2022-10-24T12:45:44.729Z,99321.22
2022-10-24T12:48:31.031Z,99313.47
2022-10-24T12:50:58.484Z,99311.53
2022-10-24T12:53:35.867Z,99312.63
2022-10-24T12:56:11.469Z,99308.09
2022-10-24T12:58:39.578Z,99292.44
2022-10-24T13:01:10.390Z,99290.06
2022-10-24T13:03:43.631Z,99290.81
2022-10-24T13:06:25.565Z,99286.88
2022-10-24T13:08:55.707Z,99281.81
2022-10-24T13:11:42.010Z,99290.16
2022-10-24T13:14:24.295Z,99287.88
2022-10-24T13:17:07.304Z,99274.47
2022-10-24T13:19:34.471Z,99269.28
2022-10-24T13:22:02.272Z,99270.53
2022-10-24T13:24:29.482Z,99265.22
2022-10-24T13:26:56.808Z,99263.63
2022-10-24T13:29:24.241Z,99282.91
2022-10-24T13:31:52.226Z,99278.22
2022-10-24T13:34:25.216Z,99278.53
2022-10-24T13:37:11.075Z,99281.56
2022-10-24T13:39:44.965Z,99270.53
2022-10-24T13:42:18.463Z,99278.41
2022-10-24T13:44:48.459Z,99272.25
2022-10-24T13:47:35.834Z,99274.72
2022-10-24T13:50:22.465Z,99268.09
2022-10-24T13:52:52.560Z,99273.88
2022-10-24T13:55:22.878Z,99269.44
2022-10-24T13:57:54.567Z,99269.03
2022-10-24T14:00:21.983Z,99271.19
2022-10-24T14:02:49.790Z,99272.06
2022-10-24T14:05:23.605Z,99276.16
2022-10-24T14:07:51.082Z,99265.22
2022-10-24T14:10:19.779Z,99260.28
2022-10-24T14:12:47.450Z,99258.19
2022-10-24T14:15:19.312Z,99259.28
2022-10-24T14:18:08.567Z,99258.81
2022-10-24T14:20:37.193Z,99256.69
2022-10-24T14:23:23.084Z,99258.25
2022-10-24T14:26:01.769Z,99256.03
2022-10-24T14:28:33.383Z,99260.25
2022-10-24T14:31:01.914Z,99265.38
2022-10-24T14:33:30.084Z,99263.19
2022-10-24T14:35:58.712Z,99254.34
2022-10-24T14:38:26.475Z,99267.22
2022-10-24T14:41:07.792Z,99255.44
2022-10-24T14:43:37.392Z,99259.28
2022-10-24T14:46:18.114Z,99253.66
2022-10-24T14:48:47.040Z,99247.34
2022-10-24T14:51:34.960Z,99242.97
2022-10-24T14:54:07.812Z,99252.50
2022-10-24T14:56:35.722Z,99259.72
2022-10-24T14:59:03.938Z,99263.66
2022-10-24T15:01:31.547Z,99263.38
2022-10-24T15:04:02.532Z,99264.13
2022-10-24T15:06:40.084Z,99262.66
2022-10-24T15:09:10.471Z,99263.88
2022-10-24T15:11:38.796Z,99262.78
2022-10-24T15:14:07.215Z,99260.19
2022-10-24T15:16:35.741Z,99265.78
2022-10-24T15:19:04.134Z,99259.94
2022-10-24T15:21:32.946Z,99251.88
2022-10-24T15:24:00.329Z,99250.84
2022-10-24T15:26:32.257Z,99242.59
2022-10-24T15:29:02.343Z,99250.75
2022-10-24T15:31:30.658Z,99240.25
2022-10-24T15:33:57.812Z,99240.34
2022-10-24T15:36:24.946Z,99237.00
2022-10-24T15:39:06.020Z,99237.78
2022-10-24T15:41:33.236Z,99244.41
2022-10-24T15:44:00.861Z,99243.97
2022-10-24T15:46:28.784Z,99247.09
2022-10-24T15:48:56.016Z,99249.66
2022-10-24T15:51:24.179Z,99233.78
2022-10-24T15:53:51.503Z,99243.34
2022-10-24T15:56:18.923Z,99240.69
2022-10-24T16:01:25.592Z,99237.84
2022-10-24T16:03:53.427Z,99224.44
2022-10-24T16:06:21.973Z,99226.56
2022-10-24T16:08:49.705Z,99240.31
2022-10-24T16:11:17.259Z,99250.97
2022-10-24T16:13:44.676Z,99252.06
2022-10-24T16:16:14.301Z,99229.22
2022-10-24T16:18:41.836Z,99231.25
2022-10-24T16:21:11.177Z,99223.56
2022-10-24T16:23:38.428Z,99230.19
2022-10-24T16:26:06.229Z,99250.25
2022-10-24T16:28:33.494Z,99241.06
2022-10-24T16:31:00.669Z,99237.97
2022-10-24T16:33:28.410Z,99239.56
2022-10-24T16:35:55.622Z,99241.09
2022-10-24T16:38:23.119Z,99246.03
2022-10-24T16:40:50.712Z,99238.28
2022-10-24T16:43:18.932Z,99228.53
2022-10-24T16:45:53.042Z,99238.56
2022-10-24T16:48:20.874Z,99230.22
2022-10-24T16:50:48.141Z,99230.38
2022-10-24T16:53:18.306Z,99232.50
2022-10-24T16:55:49.946Z,99234.72
2022-10-24T16:58:17.345Z,99241.41
2022-10-24T17:00:44.790Z,99243.12
2022-10-24T17:03:12.640Z,99246.41
2022-10-24T17:05:39.865Z,99241.41
2022-10-24T17:08:07.405Z,99241.13
2022-10-24T17:10:34.873Z,99237.66
2022-10-24T17:13:02.314Z,99234.94
2022-10-24T17:15:29.603Z,99235.25
2022-10-24T17:17:57.053Z,99235.25
2022-10-24T17:20:24.610Z,99238.81
2022-10-24T17:22:52.312Z,99244.59
2022-10-24T17:25:21.466Z,99238.25
2022-10-24T17:27:51.048Z,99236.97
2022-10-24T17:30:20.141Z,99239.75
2022-10-24T17:32:48.093Z,99235.03
2022-10-24T17:35:16.317Z,99239.81
2022-10-24T17:37:46.968Z,99231.13
2022-10-24T17:40:16.368Z,99225.13
2022-10-24T17:42:48.289Z,99217.13
2022-10-24T17:45:17.331Z,99213.88
2022-10-24T17:50:17.501Z,99232.19
2022-10-24T17:52:50.615Z,99229.22
2022-10-24T17:55:44.603Z,99228.84
2022-10-24T17:58:10.746Z,99228.72
2022-10-24T18:00:38.961Z,99236.44
2022-10-24T18:03:09.776Z,99229.84
2022-10-24T18:05:38.814Z,99223.53
2022-10-24T18:08:07.304Z,99227.12
2022-10-24T18:10:36.666Z,99231.31
2022-10-24T18:13:03.866Z,99236.00
2022-10-24T18:15:31.744Z,99242.28
2022-10-24T18:17:59.748Z,99216.06
2022-10-24T18:20:27.416Z,99222.28
2022-10-24T18:22:55.230Z,99230.38
2022-10-24T18:25:23.621Z,99225.94
2022-10-24T18:27:51.504Z,99219.22
2022-10-24T18:30:20.809Z,99221.72
2022-10-24T18:32:49.312Z,99223.81
2022-10-24T18:35:17.262Z,99225.56
2022-10-24T18:37:45.009Z,99218.53
2022-10-24T18:40:16.082Z,99226.53
2022-10-24T18:42:48.334Z,99229.50
2022-10-24T18:45:23.358Z,99225.69
2022-10-24T18:47:51.180Z,99224.88
2022-10-24T18:50:20.595Z,99220.53
2022-10-24T18:53:00.113Z,99220.06
2022-10-24T18:55:28.828Z,99207.00
2022-10-24T18:57:56.569Z,99192.56
2022-10-24T19:00:25.487Z,99187.97
2022-10-24T19:02:59.048Z,99182.91
2022-10-24T19:05:52.009Z,99191.22
2022-10-24T19:08:24.239Z,99194.03
2022-10-24T19:10:53.338Z,99192.31
2022-10-24T19:13:21.001Z,99196.94
2022-10-24T19:16:00.458Z,99199.00
2022-10-24T19:18:28.828Z,99190.72
2022-10-24T19:20:56.926Z,99196.81
2022-10-24T19:23:25.215Z,99189.84
2022-10-24T19:25:52.902Z,99200.19
2022-10-24T19:28:20.983Z,99188.72
2022-10-24T19:30:48.652Z,99187.94
2022-10-24T19:33:16.513Z,99190.22
2022-10-24T19:35:47.866Z,99187.13
2022-10-24T19:38:15.609Z,99185.84
2022-10-24T19:40:53.338Z,99188.25
2022-10-24T19:43:21.704Z,99179.16
2022-10-24T19:45:50.824Z,99175.50
2022-10-24T19:48:33.703Z,99174.81
2022-10-24T19:51:02.010Z,99182.69
2022-10-24T19:53:29.550Z,99182.19
2022-10-24T19:55:57.156Z,99175.88
2022-10-24T19:58:24.828Z,99183.75
2022-10-24T20:00:52.686Z,99172.63
2022-10-24T20:03:20.674Z,99150.91
2022-10-24T20:05:48.583Z,99142.63
2022-10-24T20:08:16.387Z,99143.59
2022-10-24T20:10:50.364Z,99144.28
2022-10-24T20:13:17.943Z,99143.69
2022-10-24T20:15:52.223Z,99142.00
2022-10-24T20:18:19.697Z,99155.69
2022-10-24T20:20:48.710Z,99153.84
2022-10-24T20:23:17.049Z,99155.16
2022-10-24T20:25:44.887Z,99154.25
2022-10-24T20:28:14.100Z,99154.84
2022-10-24T20:30:42.658Z,99155.13
2022-10-24T20:33:10.484Z,99174.25
2022-10-24T20:35:38.546Z,99162.56
2022-10-24T20:38:05.846Z,99167.06
2022-10-24T20:40:33.119Z,99168.13
2022-10-24T20:43:04.947Z,99152.88
2022-10-24T20:45:34.956Z,99166.12
2022-10-24T20:48:02.579Z,99161.72
2022-10-24T20:50:29.749Z,99160.41
2022-10-24T20:52:57.128Z,99166.47
2022-10-24T20:55:39.540Z,99176.97
2022-10-24T20:58:13.886Z,99171.50
2022-10-24T21:03:12.153Z,99182.62
2022-10-24T21:05:39.716Z,99179.13
2022-10-24T21:08:07.396Z,99180.66
2022-10-24T21:10:35.109Z,99176.47
2022-10-24T21:13:02.362Z,99172.03
2022-10-24T21:15:30.426Z,99171.97
2022-10-24T21:17:57.989Z,99166.59
2022-10-24T21:20:25.201Z,99174.72
2022-10-24T21:22:52.691Z,99169.22
2022-10-24T21:25:19.885Z,99177.41
2022-10-24T21:27:47.216Z,99174.56
2022-10-24T21:30:15.065Z,99183.63
2022-10-24T21:32:42.318Z,99175.53
2022-10-24T21:35:09.518Z,99187.25
2022-10-24T21:37:37.084Z,99184.69
2022-10-24T21:40:04.455Z,99172.16
2022-10-24T21:42:33.237Z,99189.53
2022-10-24T21:45:00.988Z,99199.53
2022-10-24T21:47:28.271Z,99199.28
2022-10-24T21:49:55.491Z,99207.66
2022-10-24T21:52:23.286Z,99214.56
2022-10-24T21:54:50.502Z,99201.25
2022-10-24T21:57:17.662Z,99219.75
2022-10-24T21:59:45.210Z,99215.53
2022-10-24T22:02:12.512Z,99207.31
2022-10-24T22:04:40.059Z,99197.00
2022-10-24T22:07:07.308Z,99196.53
2022-10-24T22:09:34.474Z,99204.78
2022-10-24T22:12:01.965Z,99199.97
2022-10-24T22:14:29.127Z,99195.03
2022-10-24T22:16:56.255Z,99194.72
2022-10-24T22:19:23.691Z,99191.81
2022-10-24T22:21:50.945Z,99192.91
2022-10-24T22:24:19.140Z,99196.75
2022-10-24T22:26:46.818Z,99199.34
2022-10-24T22:29:15.940Z,99190.44
2022-10-24T22:31:43.363Z,99194.94
2022-10-24T22:34:11.597Z,99182.38
2022-10-24T22:36:48.186Z,99192.47
2022-10-24T22:39:19.400Z,99190.00
2022-10-24T22:41:47.033Z,99190.03
2022-10-24T22:44:15.197Z,99187.81
2022-10-24T22:46:42.554Z,99190.50
2022-10-24T22:49:15.992Z,99193.87
2022-10-24T22:51:43.519Z,99187.00
2022-10-24T22:54:14.720Z,99187.97
2022-10-24T22:56:42.145Z,99183.69
2022-10-24T22:59:09.747Z,99184.00
2022-10-24T23:01:49.220Z,99184.44
2022-10-24T23:04:25.106Z,99192.31
2022-10-24T23:07:01.097Z,99189.06
2022-10-24T23:09:28.558Z,99169.59
2022-10-24T23:11:55.738Z,99169.87
2022-10-24T23:14:23.066Z,99154.44
2022-10-24T23:16:57.116Z,99159.69
2022-10-24T23:19:25.705Z,99173.00
2022-10-24T23:21:54.958Z,99173.75
2022-10-24T23:24:22.215Z,99171.06
2022-10-24T23:26:59.108Z,99152.22
2022-10-24T23:29:26.606Z,99143.75
2022-10-24T23:31:53.874Z,99146.22
2022-10-24T23:34:21.176Z,99130.94
2022-10-24T23:36:48.658Z,99137.47
2022-10-24T23:39:16.072Z,99132.06
2022-10-24T23:41:43.382Z,99131.78
2022-10-24T23:44:11.276Z,99137.59
2022-10-24T23:46:39.095Z,99140.59
2022-10-24T23:49:09.992Z,99132.94
2022-10-24T23:51:49.719Z,99130.53
2022-10-24T23:54:16.867Z,99136.84
2022-10-24T23:56:44.459Z,99141.69
2022-10-24T23:59:11.633Z,99143.56
